Time;durP1;ratioP1;P1;durP2;ratioP2;P2;SDS_P1;SDS_P2;PMS_P1;PMS_P2;Temp;Humidity;BMP_temperature;BMP_pressure;BME280_temperature;BME280_humidity;BME280_pressure;Samples;Min_cycle;Max_cycle;Signal;HPM_P1;HPM_P2
2022/04/26 03:36:28;;;;;;;11.77;5.03;;;14.90;63.60;;;;;;4208884;28;20387;-67
2022/04/26 03:38:52;;;;;;;7.45;3.85;;;14.90;63.70;;;;;;4208527;28;20058;-67
2022/04/26 03:41:14;;;;;;;6.93;4.13;;;14.80;63.70;;;;;;4209159;28;20066;-67
2022/04/26 03:43:37;;;;;;;9.98;4.13;;;14.80;63.80;;;;;;4209122;28;20074;-67
2022/04/26 03:45:59;;;;;;;12.93;4.32;;;14.80;63.90;;;;;;4209124;28;20048;-68
2022/04/26 03:48:23;;;;;;;12.10;5.10;;;14.80;63.90;;;;;;4207147;28;20067;-67
2022/04/26 03:50:46;;;;;;;9.05;4.10;;;14.80;63.90;;;;;;4208204;28;20059;-67
2022/04/26 03:53:08;;;;;;;10.18;4.75;;;14.80;63.90;;;;;;4208447;28;20413;-67
2022/04/26 03:55:30;;;;;;;12.88;4.15;;;14.80;63.90;;;;;;4192420;28;20524;-67
2022/04/26 03:57:52;;;;;;;12.27;4.07;;;14.80;63.90;;;;;;4192510;28;20045;-67
2022/04/26 04:00:15;;;;;;;10.15;4.22;;;14.80;63.90;;;;;;4200290;28;20048;-68
2022/04/26 04:02:40;;;;;;;10.80;3.78;;;14.80;64.00;;;;;;4209289;28;20044;-68
2022/04/26 04:05:05;;;;;;;8.52;3.97;;;14.80;64.00;;;;;;4199417;28;20048;-67
2022/04/26 04:07:27;;;;;;;10.40;4.78;;;14.80;64.00;;;;;;4209026;28;20109;-68
2022/04/26 04:09:49;;;;;;;11.65;4.30;;;14.70;64.00;;;;;;4208853;28;20589;-68
2022/04/26 04:12:12;;;;;;;11.95;3.88;;;14.70;64.20;;;;;;4203469;28;20052;-68
2022/04/26 04:14:34;;;;;;;9.15;3.90;;;14.70;64.20;;;;;;4196841;28;20046;-68
2022/04/26 04:16:57;;;;;;;7.20;3.67;;;14.70;64.30;;;;;;4208691;28;20505;-68
2022/04/26 04:19:21;;;;;;;3.92;3.33;;;14.70;64.40;;;;;;4208466;28;20063;-68
2022/04/26 04:21:45;;;;;;;8.15;4.07;;;14.70;64.50;;;;;;4195842;28;20059;-67
2022/04/26 04:24:07;;;;;;;10.02;3.88;;;14.70;64.40;;;;;;4195304;28;20479;-67
2022/04/26 04:26:31;;;;;;;11.55;4.03;;;14.70;64.40;;;;;;4206443;28;20123;-68
2022/04/26 04:28:53;;;;;;;11.40;3.63;;;14.70;64.50;;;;;;4211750;28;20047;-68
2022/04/26 04:31:15;;;;;;;12.90;3.40;;;14.70;64.40;;;;;;4211946;28;20469;-67
2022/04/26 04:33:37;;;;;;;13.30;3.42;;;14.80;64.40;;;;;;4210651;28;20081;-67
2022/04/26 04:35:59;;;;;;;8.27;3.38;;;14.70;64.20;;;;;;4212062;28;20624;-67
2022/04/26 04:38:22;;;;;;;9.50;3.35;;;14.70;64.30;;;;;;4210162;28;20056;-68
2022/04/26 04:40:44;;;;;;;14.00;3.45;;;14.70;64.20;;;;;;4212041;28;20056;-68
2022/04/26 04:43:06;;;;;;;10.63;3.85;;;14.80;64.20;;;;;;4212124;28;20137;-68
2022/04/26 04:45:28;;;;;;;12.50;3.40;;;14.70;64.20;;;;;;4211743;28;20055;-68
2022/04/26 04:47:50;;;;;;;12.73;3.47;;;14.80;64.20;;;;;;4210202;28;20151;-68
2022/04/26 04:50:13;;;;;;;9.55;3.40;;;14.70;64.80;;;;;;4211203;28;20055;-68
2022/04/26 04:52:36;;;;;;;9.82;3.42;;;14.80;63.90;;;;;;4211328;28;20048;-67
2022/04/26 04:54:59;;;;;;;9.20;3.50;;;14.80;63.80;;;;;;4211631;28;20150;-67
2022/04/26 04:57:21;;;;;;;8.88;3.90;;;14.70;63.10;;;;;;4195131;28;20048;-67
2022/04/26 04:59:43;;;;;;;8.40;3.72;;;14.70;63.90;;;;;;4202124;28;20040;-67
2022/04/26 05:02:05;;;;;;;10.68;4.03;;;14.70;63.90;;;;;;4211589;28;20077;-67
2022/04/26 05:04:27;;;;;;;9.10;3.33;;;14.70;64.00;;;;;;4211646;28;20054;-67
2022/04/26 05:06:49;;;;;;;10.23;3.60;;;14.80;63.90;;;;;;4211589;28;20398;-69
2022/04/26 05:09:12;;;;;;;7.07;3.67;;;14.70;64.00;;;;;;4211390;28;20048;-68
2022/04/26 05:11:35;;;;;;;12.93;3.88;;;14.70;64.00;;;;;;4208813;28;20067;-68
2022/04/26 05:13:57;;;;;;;10.52;3.30;;;14.70;64.00;;;;;;4210845;28;20047;-67
2022/04/26 05:16:19;;;;;;;8.55;3.30;;;14.70;64.80;;;;;;4210469;28;20080;-68
2022/04/26 05:18:41;;;;;;;8.63;3.40;;;14.70;63.70;;;;;;4211237;28;20051;-67
2022/04/26 05:21:08;;;;;;;10.75;3.88;;;14.70;63.70;;;;;;4194558;28;20044;-67
2022/04/26 05:26:14;;;;;;;12.23;3.85;;;14.80;64.60;;;;;;4161429;28;20048;-68
2022/04/26 05:28:38;;;;;;;9.80;3.67;;;14.80;63.90;;;;;;4194592;28;20395;-68
2022/04/26 05:30:59;;;;;;;7.15;3.45;;;14.80;64.90;;;;;;4202272;28;20063;-67
2022/04/26 05:33:23;;;;;;;8.88;3.53;;;14.80;64.10;;;;;;4209647;28;20127;-68
2022/04/26 05:35:45;;;;;;;10.88;3.65;;;14.80;64.00;;;;;;4210491;28;20056;-68
2022/04/26 05:38:07;;;;;;;11.40;3.10;;;14.80;64.00;;;;;;4202017;28;20081;-67
2022/04/26 05:40:30;;;;;;;7.05;3.40;;;14.80;64.10;;;;;;4210017;28;20048;-68
2022/04/26 05:42:52;;;;;;;10.23;3.92;;;14.80;64.90;;;;;;4210758;28;20050;-69
2022/04/26 05:45:16;;;;;;;6.13;3.72;;;14.90;64.00;;;;;;4210415;28;20044;-69
2022/04/26 05:47:41;;;;;;;4.63;3.83;;;14.90;63.80;;;;;;4200560;28;20563;-69
2022/04/26 05:50:04;;;;;;;9.57;3.80;;;14.90;63.70;;;;;;4209776;28;20043;-68
2022/04/26 05:52:26;;;;;;;10.65;4.00;;;14.90;63.70;;;;;;4210139;28;20060;-68
2022/04/26 05:54:48;;;;;;;13.45;4.72;;;15.00;63.50;;;;;;4202153;28;20051;-68
2022/04/26 05:57:10;;;;;;;6.68;3.40;;;14.90;63.20;;;;;;4209853;28;20123;-63
2022/04/26 05:59:32;;;;;;;10.55;3.78;;;15.00;63.80;;;;;;4210024;28;20133;-63
2022/04/26 06:01:56;;;;;;;8.18;3.58;;;15.00;63.50;;;;;;4209977;28;20040;-64
2022/04/26 06:04:19;;;;;;;10.43;3.75;;;14.90;63.10;;;;;;4202993;27;20498;-63
2022/04/26 06:06:42;;;;;;;11.30;4.25;;;14.90;63.10;;;;;;4215518;27;20505;-64
2022/04/26 06:09:05;;;;;;;8.35;3.88;;;14.90;63.20;;;;;;4193803;28;20059;-63
2022/04/26 06:11:27;;;;;;;10.95;4.18;;;14.90;63.20;;;;;;4212459;28;20054;-63
2022/04/26 06:13:49;;;;;;;10.80;3.60;;;14.90;63.30;;;;;;4210070;28;20174;-63
2022/04/26 06:16:11;;;;;;;5.38;3.33;;;14.80;63.50;;;;;;4208596;28;20044;-63
2022/04/26 06:18:34;;;;;;;12.68;3.72;;;14.80;63.70;;;;;;4210228;28;20049;-63
2022/04/26 06:20:57;;;;;;;11.55;3.13;;;14.80;64.00;;;;;;4210198;28;20043;-62
2022/04/26 06:23:19;;;;;;;8.13;3.15;;;14.80;64.30;;;;;;4210052;28;20131;-63
2022/04/26 06:25:41;;;;;;;8.10;3.20;;;14.80;64.30;;;;;;4209625;28;20051;-63
2022/04/26 06:28:04;;;;;;;8.68;3.45;;;14.80;64.40;;;;;;4209511;28;20044;-63
2022/04/26 06:30:26;;;;;;;6.72;3.15;;;14.80;64.60;;;;;;4210377;28;20048;-64
2022/04/26 06:32:48;;;;;;;7.15;3.45;;;14.80;64.50;;;;;;4210253;28;20560;-63
2022/04/26 06:35:12;;;;;;;11.95;3.63;;;14.80;64.40;;;;;;4209872;28;20078;-65
2022/04/26 06:37:34;;;;;;;7.03;3.25;;;14.80;64.20;;;;;;4207126;28;20105;-65
2022/04/26 06:39:56;;;;;;;7.53;2.97;;;14.80;64.20;;;;;;4207603;28;20101;-64
2022/04/26 06:42:18;;;;;;;8.93;3.10;;;14.80;64.10;;;;;;4207439;28;20052;-65
2022/04/26 06:44:40;;;;;;;9.30;3.15;;;14.80;64.00;;;;;;4207222;28;20064;-66
2022/04/26 06:47:03;;;;;;;9.65;2.65;;;14.90;63.40;;;;;;4207728;28;20134;-65
2022/04/26 06:49:25;;;;;;;9.80;3.08;;;14.90;62.80;;;;;;4207262;28;20489;-65
2022/04/26 06:51:49;;;;;;;9.80;2.92;;;14.90;62.30;;;;;;4205577;28;20426;-65
2022/04/26 06:54:11;;;;;;;7.57;2.70;;;15.00;61.80;;;;;;4205973;28;20043;-65
2022/04/26 06:56:33;;;;;;;7.70;2.78;;;15.00;61.40;;;;;;4207682;28;20066;-65
2022/04/26 06:58:55;;;;;;;4.18;2.72;;;15.00;61.00;;;;;;4207443;28;20097;-65
2022/04/26 07:01:17;;;;;;;4.90;2.20;;;15.00;61.10;;;;;;4207376;28;20040;-65
2022/04/26 07:03:59;;;;;;;5.20;2.33;;;15.00;60.50;;;;;;4206974;28;20101;-66
2022/04/26 07:06:22;;;;;;;6.55;2.33;;;15.00;60.40;;;;;;4207211;28;20424;-65
2022/04/26 07:08:46;;;;;;;5.38;2.58;;;15.00;60.10;;;;;;4207374;28;20055;-65
2022/04/26 07:11:08;;;;;;;5.25;2.35;;;15.00;60.10;;;;;;4205458;28;20486;-65
2022/04/26 07:13:30;;;;;;;7.07;2.78;;;15.10;60.40;;;;;;4206381;28;20151;-65
2022/04/26 07:15:52;;;;;;;9.25;3.03;;;15.10;60.20;;;;;;4206467;28;20048;-65
2022/04/26 07:18:15;;;;;;;5.90;2.28;;;15.00;59.90;;;;;;4205029;28;20060;-65
2022/04/26 07:20:38;;;;;;;5.88;2.22;;;15.00;59.80;;;;;;4206480;28;20058;-66
2022/04/26 07:23:00;;;;;;;5.10;2.25;;;15.10;59.80;;;;;;4207150;28;20059;-65
2022/04/26 07:25:24;;;;;;;6.25;2.10;;;15.00;59.60;;;;;;4204639;28;20683;-65
2022/04/26 07:27:46;;;;;;;9.15;2.78;;;15.00;59.50;;;;;;4206157;28;20398;-65
2022/04/26 07:30:09;;;;;;;8.13;2.85;;;15.10;59.60;;;;;;4206030;28;20062;-66
2022/04/26 07:35:11;;;;;;;6.32;2.47;;;15.10;59.00;;;;;;4205378;28;20051;-66
2022/04/26 07:37:33;;;;;;;6.43;2.40;;;15.10;58.40;;;;;;4207694;28;20044;-64
2022/04/26 07:39:56;;;;;;;6.80;2.90;;;15.10;58.50;;;;;;4207085;28;20095;-65
2022/04/26 07:42:19;;;;;;;7.50;2.17;;;15.10;58.50;;;;;;4204608;28;20048;-65
2022/04/26 07:44:42;;;;;;;10.02;2.88;;;15.10;58.60;;;;;;4204603;28;20059;-65
2022/04/26 07:47:06;;;;;;;6.57;2.65;;;15.10;58.70;;;;;;4206128;28;20097;-65
2022/04/26 07:49:29;;;;;;;5.70;1.92;;;15.10;58.80;;;;;;4204553;28;20087;-65
2022/04/26 07:51:52;;;;;;;9.10;3.05;;;15.10;58.70;;;;;;4206770;28;20071;-66
2022/04/26 07:54:15;;;;;;;5.10;2.35;;;15.10;58.60;;;;;;4205664;28;20056;-65
2022/04/26 07:56:37;;;;;;;5.45;2.80;;;15.10;58.70;;;;;;4206384;28;20173;-64
2022/04/26 07:59:02;;;;;;;8.52;2.53;;;15.10;59.20;;;;;;4206330;28;20101;-65
2022/04/26 08:01:23;;;;;;;6.38;2.53;;;15.20;58.30;;;;;;4206824;28;20052;-65
2022/04/26 08:03:46;;;;;;;6.53;2.22;;;15.20;58.10;;;;;;4206150;28;20040;-65
2022/04/26 08:06:08;;;;;;;8.68;2.65;;;15.20;58.10;;;;;;4205986;28;20449;-66
2022/04/26 08:08:30;;;;;;;7.53;2.55;;;15.20;58.20;;;;;;4207727;28;20510;-65
2022/04/26 08:10:52;;;;;;;7.68;2.40;;;15.20;58.10;;;;;;4206465;28;20422;-65
2022/04/26 08:13:14;;;;;;;6.15;2.13;;;15.20;58.20;;;;;;4206019;28;20372;-65
2022/04/26 08:15:39;;;;;;;4.93;2.10;;;15.20;58.10;;;;;;4204784;28;20443;-65
2022/04/26 08:18:00;;;;;;;5.82;2.15;;;15.20;57.70;;;;;;4205944;28;20047;-64
2022/04/26 08:20:24;;;;;;;6.63;2.65;;;15.30;57.80;;;;;;4205679;28;20495;-65
2022/04/26 08:22:46;;;;;;;6.55;2.55;;;15.20;57.70;;;;;;4206349;28;20477;-64
2022/04/26 08:27:48;;;;;;;6.75;2.17;;;15.20;57.40;;;;;;4205754;28;20052;-65
2022/04/26 08:30:10;;;;;;;7.60;2.67;;;15.30;57.90;;;;;;4204407;28;20133;-65
2022/04/26 08:32:42;;;;;;;5.75;2.78;;;15.30;58.10;;;;;;4206365;28;20155;-64
2022/04/26 08:35:06;;;;;;;7.75;2.88;;;15.30;58.40;;;;;;4205951;28;20059;-64
2022/04/26 08:37:28;;;;;;;8.95;2.78;;;15.20;58.50;;;;;;4206353;28;20060;-64
2022/04/26 08:39:52;;;;;;;6.57;3.38;;;15.30;58.40;;;;;;4205970;28;20487;-64
2022/04/26 08:42:14;;;;;;;9.40;2.63;;;15.20;58.10;;;;;;4205772;28;20131;-67
2022/04/26 08:44:38;;;;;;;3.70;2.65;;;15.20;58.10;;;;;;4205640;28;20537;-64
2022/04/26 08:52:21;;;;;;;6.55;2.50;;;15.20;58.40;;;;;;4205291;28;20093;-63
2022/04/26 08:54:43;;;;;;;5.43;2.72;;;15.20;57.90;;;;;;4203498;28;20048;-64
2022/04/26 08:57:05;;;;;;;9.95;2.90;;;15.20;57.70;;;;;;4205756;28;20074;-64
2022/04/26 08:59:28;;;;;;;7.80;2.78;;;15.20;57.80;;;;;;4206102;28;20467;-65
2022/04/26 09:01:50;;;;;;;5.90;2.65;;;15.30;57.50;;;;;;4205891;28;20047;-64
2022/04/26 09:04:17;;;;;;;6.15;2.97;;;15.30;57.50;;;;;;4206127;28;20463;-65
2022/04/26 09:06:47;;;;;;;7.03;2.58;;;15.30;57.60;;;;;;4209437;28;20109;-64
2022/04/26 09:09:11;;;;;;;8.68;3.00;;;15.40;57.70;;;;;;4210060;28;20044;-64
2022/04/26 09:11:34;;;;;;;3.72;2.78;;;15.40;58.30;;;;;;4209186;28;20060;-64
2022/04/26 09:13:56;;;;;;;7.07;2.90;;;15.50;57.50;;;;;;4207387;28;20418;-64
2022/04/26 09:16:20;;;;;;;9.43;3.15;;;15.50;57.70;;;;;;4209245;28;20153;-65
2022/04/26 09:18:51;;;;;;;5.35;2.80;;;15.60;58.10;;;;;;4208117;28;20049;-66
2022/04/26 09:21:14;;;;;;;5.75;3.00;;;15.60;56.80;;;;;;4208757;28;20457;-66
2022/04/26 09:23:39;;;;;;;4.25;2.40;;;15.70;56.70;;;;;;4208878;28;20429;-66
2022/04/26 09:26:07;;;;;;;7.18;2.33;;;15.70;56.40;;;;;;4208919;28;20176;-66
2022/04/26 09:28:30;;;;;;;4.70;2.55;;;15.70;56.30;;;;;;4207547;28;20044;-66
2022/04/26 09:30:53;;;;;;;9.48;3.00;;;15.80;56.20;;;;;;4208160;28;20048;-66
2022/04/26 09:33:33;;;;;;;4.30;2.33;;;15.80;56.10;;;;;;4208687;28;20468;-66
2022/04/26 09:36:00;;;;;;;5.33;2.73;;;15.80;55.30;;;;;;4208549;28;20138;-66
2022/04/26 09:38:24;;;;;;;8.65;3.00;;;15.70;55.00;;;;;;4206985;28;20040;-66
2022/04/26 09:40:48;;;;;;;7.30;2.85;;;15.70;54.70;;;;;;4208328;28;20085;-66
2022/04/26 09:43:15;;;;;;;5.03;2.42;;;15.70;54.90;;;;;;4208039;28;20067;-66
2022/04/26 09:45:55;;;;;;;5.15;2.13;;;15.70;55.10;;;;;;4207854;28;20055;-66
2022/04/26 09:48:26;;;;;;;3.70;2.67;;;15.70;54.80;;;;;;4207299;28;20640;-65
2022/04/26 09:50:48;;;;;;;5.53;2.47;;;15.70;55.10;;;;;;4208044;28;20044;-65
2022/04/26 09:53:10;;;;;;;3.40;2.05;;;15.70;55.30;;;;;;4208814;28;20164;-65
2022/04/26 09:55:33;;;;;;;3.45;2.40;;;15.70;55.40;;;;;;4206603;28;20514;-66
2022/04/26 09:57:57;;;;;;;5.57;2.40;;;15.70;55.20;;;;;;4207617;28;20580;-66
2022/04/26 10:00:21;;;;;;;4.85;2.85;;;15.70;54.70;;;;;;4208072;28;20165;-66
2022/04/26 10:02:53;;;;;;;7.53;2.75;;;15.70;54.00;;;;;;4206736;28;20146;-66
2022/04/26 10:05:20;;;;;;;4.05;2.50;;;15.80;54.10;;;;;;4201092;28;20047;-67
2022/04/26 10:07:46;;;;;;;12.43;3.00;;;15.80;54.30;;;;;;4216487;28;20518;-66
2022/04/26 10:10:09;;;;;;;4.35;2.72;;;15.80;54.70;;;;;;4208676;28;20074;-67
2022/04/26 10:12:33;;;;;;;6.57;3.05;;;15.90;54.30;;;;;;4209018;28;20117;-66
2022/04/26 10:14:57;;;;;;;6.03;3.03;;;15.90;54.30;;;;;;4210397;28;20078;-66
2022/04/26 10:17:19;;;;;;;4.20;2.92;;;15.90;54.00;;;;;;4209878;28;20082;-66
2022/04/26 10:19:43;;;;;;;3.63;2.78;;;15.90;54.10;;;;;;4210020;28;20489;-65
2022/04/26 10:22:07;;;;;;;5.95;2.20;;;15.90;54.60;;;;;;4210607;28;20527;-65
2022/04/26 10:24:30;;;;;;;3.80;2.08;;;15.90;54.70;;;;;;4195768;28;20102;-68
2022/04/26 10:26:53;;;;;;;5.70;2.65;;;15.90;54.30;;;;;;4210402;28;20051;-67
2022/04/26 10:29:23;;;;;;;4.22;2.40;;;15.90;54.10;;;;;;4210394;28;20051;-67
2022/04/26 10:31:48;;;;;;;5.80;2.25;;;15.90;53.80;;;;;;4210137;28;20047;-66
2022/04/26 10:34:27;;;;;;;6.03;2.83;;;15.90;54.00;;;;;;4209807;28;20048;-66
2022/04/26 10:36:50;;;;;;;5.10;2.30;;;15.90;54.10;;;;;;4210251;28;20052;-66
2022/04/26 10:39:31;;;;;;;5.18;2.67;;;16.00;54.20;;;;;;4210053;28;20044;-66
2022/04/26 10:41:54;;;;;;;6.28;2.40;;;16.00;53.80;;;;;;4210296;28;20048;-66
2022/04/26 10:44:26;;;;;;;5.07;2.63;;;16.00;53.70;;;;;;4208545;28;20181;-66
2022/04/26 10:47:22;;;;;;;7.18;2.97;;;16.00;54.10;;;;;;4210025;28;20052;-65
2022/04/26 10:49:45;;;;;;;5.55;3.40;;;16.00;53.30;;;;;;4209645;28;20101;-66
2022/04/26 10:52:43;;;;;;;5.10;2.60;;;16.10;54.50;;;;;;4208363;28;20040;-66
2022/04/26 10:55:11;;;;;;;4.25;2.70;;;16.10;53.90;;;;;;4209300;28;20391;-66
2022/04/26 10:57:34;;;;;;;3.88;2.65;;;16.10;53.30;;;;;;4210113;28;20052;-66
2022/04/26 10:59:59;;;;;;;5.30;2.70;;;16.10;53.70;;;;;;4209851;28;20048;-66
2022/04/26 11:02:23;;;;;;;5.28;2.88;;;16.10;53.50;;;;;;4209465;28;20110;-66
2022/04/26 11:04:47;;;;;;;5.68;2.80;;;16.20;53.30;;;;;;4209539;28;20048;-66
2022/04/26 11:07:12;;;;;;;5.57;2.80;;;16.20;53.90;;;;;;4209911;28;20140;-65
2022/04/26 11:09:34;;;;;;;10.77;3.63;;;16.20;53.00;;;;;;4208405;28;20048;-66
2022/04/26 11:11:57;;;;;;;6.70;3.05;;;16.20;53.30;;;;;;4209224;28;20130;-64
2022/04/26 11:14:20;;;;;;;4.57;3.05;;;16.20;52.80;;;;;;4209735;28;20052;-65
2022/04/26 11:16:55;;;;;;;9.70;3.25;;;16.20;52.90;;;;;;4209685;28;20044;-65
2022/04/26 11:19:26;;;;;;;6.80;2.40;;;16.30;53.40;;;;;;4209530;28;20508;-66
2022/04/26 11:21:48;;;;;;;6.72;2.65;;;16.30;54.70;;;;;;4209348;28;20131;-65
2022/04/26 11:29:48;;;;;;;3.75;2.53;;;16.30;53.10;;;;;;4208441;28;20043;-66
2022/04/26 11:32:28;;;;;;;5.22;2.97;;;16.30;52.40;;;;;;4209103;28;20047;-65
2022/04/26 11:34:52;;;;;;;7.03;2.85;;;16.30;52.60;;;;;;4209172;28;20498;-65
2022/04/26 11:37:15;;;;;;;5.32;2.50;;;16.40;53.30;;;;;;4209045;28;20056;-66
2022/04/26 11:39:41;;;;;;;6.57;2.80;;;16.30;52.90;;;;;;4208901;28;20044;-66
2022/04/26 11:42:03;;;;;;;6.60;2.55;;;16.40;52.90;;;;;;4208950;28;20044;-67
2022/04/26 11:44:27;;;;;;;3.55;2.47;;;16.40;52.50;;;;;;4209124;28;20048;-66
2022/04/26 11:46:58;;;;;;;3.70;3.10;;;16.40;53.10;;;;;;4208728;28;20064;-67
2022/04/26 11:49:38;;;;;;;5.47;2.72;;;16.40;52.80;;;;;;4208407;28;20044;-66
2022/04/26 11:52:02;;;;;;;7.15;2.67;;;16.50;52.90;;;;;;4208912;28;20074;-65
2022/04/26 11:54:35;;;;;;;3.80;2.42;;;16.50;53.50;;;;;;4208500;28;20059;-66
2022/04/26 11:56:57;;;;;;;4.80;3.25;;;16.50;53.60;;;;;;4209500;28;20070;-67
2022/04/26 11:59:19;;;;;;;5.18;2.50;;;16.50;53.40;;;;;;4208993;28;20062;-66
2022/04/26 12:01:41;;;;;;;6.00;3.05;;;16.60;53.00;;;;;;4208862;28;20131;-67
2022/04/26 12:04:04;;;;;;;6.28;3.03;;;16.60;54.30;;;;;;4209294;28;20046;-66
2022/04/26 12:06:28;;;;;;;4.05;2.50;;;16.60;53.00;;;;;;4208663;28;20075;-65
2022/04/26 12:08:56;;;;;;;5.13;2.45;;;16.70;51.70;;;;;;4209073;28;20391;-66
2022/04/26 12:11:20;;;;;;;6.63;2.92;;;16.70;52.30;;;;;;4208476;28;20081;-65
2022/04/26 12:13:42;;;;;;;3.80;2.60;;;16.70;51.50;;;;;;4208165;28;20076;-66
2022/04/26 12:16:18;;;;;;;8.05;2.85;;;16.80;52.60;;;;;;4208368;28;20052;-66
2022/04/26 12:18:52;;;;;;;5.40;2.25;;;16.80;51.60;;;;;;4207264;28;20625;-65
2022/04/26 12:21:14;;;;;;;5.47;2.40;;;16.80;51.50;;;;;;4208035;28;20056;-66
2022/04/26 12:23:36;;;;;;;3.35;2.03;;;16.80;51.40;;;;;;4208619;28;20102;-67
2022/04/26 12:26:02;;;;;;;3.88;2.78;;;16.80;52.20;;;;;;4208915;28;20040;-67
2022/04/26 12:28:26;;;;;;;4.22;2.20;;;16.90;51.30;;;;;;4208771;28;20142;-69
2022/04/26 12:30:47;;;;;;;4.47;2.60;;;16.90;50.80;;;;;;4208313;28;20117;-70
2022/04/26 12:33:09;;;;;;;3.00;2.50;;;16.90;50.50;;;;;;4208611;28;20079;-69
2022/04/26 12:35:31;;;;;;;3.63;2.22;;;16.90;52.10;;;;;;4208913;28;20082;-70
2022/04/26 12:38:09;;;;;;;4.78;2.53;;;16.90;51.40;;;;;;4209078;28;20055;-69
2022/04/26 12:40:31;;;;;;;5.40;2.47;;;16.90;52.00;;;;;;4209435;28;20075;-69
2022/04/26 12:42:57;;;;;;;5.68;2.78;;;16.90;52.40;;;;;;4211559;28;20050;-69
2022/04/26 12:45:21;;;;;;;6.55;2.90;;;16.90;52.10;;;;;;4212060;28;20052;-66
2022/04/26 12:50:44;;;;;;;3.92;2.28;;;17.00;52.40;;;;;;4211625;28;20040;-66
2022/04/26 12:53:07;;;;;;;4.95;2.20;;;17.00;52.80;;;;;;4211219;28;20048;-66
2022/04/26 12:55:32;;;;;;;7.32;2.47;;;17.00;51.00;;;;;;4211596;28;20048;-66
2022/04/26 12:57:58;;;;;;;5.18;2.70;;;17.00;50.70;;;;;;4211145;28;20140;-66
2022/04/26 13:00:21;;;;;;;2.25;2.08;;;17.10;50.20;;;;;;4195185;28;20048;-66
2022/04/26 13:02:43;;;;;;;2.45;2.25;;;17.10;51.70;;;;;;4211285;28;20132;-67
2022/04/26 13:05:07;;;;;;;3.70;2.78;;;17.10;51.90;;;;;;4202567;28;20397;-68
2022/04/26 13:07:29;;;;;;;6.93;2.40;;;17.10;52.00;;;;;;4211427;28;20139;-67
2022/04/26 13:09:51;;;;;;;4.05;2.40;;;17.20;51.20;;;;;;4194771;28;20048;-66
2022/04/26 13:12:13;;;;;;;5.38;2.65;;;17.20;52.10;;;;;;4194375;28;20411;-67
2022/04/26 13:14:36;;;;;;;3.30;2.53;;;17.20;52.30;;;;;;4194688;28;20399;-66
2022/04/26 13:17:07;;;;;;;5.50;2.45;;;17.20;51.90;;;;;;4207448;28;20047;-67
2022/04/26 13:19:29;;;;;;;3.67;2.42;;;17.20;51.30;;;;;;4211266;28;20396;-67
2022/04/26 13:21:51;;;;;;;5.65;2.33;;;17.30;50.50;;;;;;4211170;28;20052;-67
2022/04/26 13:24:15;;;;;;;4.65;2.47;;;17.30;50.60;;;;;;4211167;28;20102;-67
2022/04/26 13:26:37;;;;;;;6.72;3.00;;;17.40;51.00;;;;;;4210315;28;20044;-66
2022/04/26 13:28:59;;;;;;;4.13;2.38;;;17.40;50.60;;;;;;4211102;28;20142;-66
2022/04/26 13:31:23;;;;;;;4.63;2.30;;;17.40;50.70;;;;;;4211399;28;20688;-65
2022/04/26 13:33:45;;;;;;;3.80;2.13;;;17.40;51.60;;;;;;4211140;28;20055;-65
2022/04/26 13:36:07;;;;;;;4.28;2.40;;;17.40;51.50;;;;;;4210549;28;20147;-66
2022/04/26 13:38:29;;;;;;;4.07;2.50;;;17.40;51.50;;;;;;4210994;28;20567;-65
2022/04/26 13:40:53;;;;;;;6.00;2.10;;;17.40;50.40;;;;;;4211527;28;20048;-66
2022/04/26 13:43:16;;;;;;;6.13;2.80;;;17.40;50.20;;;;;;4211181;28;20543;-65
2022/04/26 13:45:58;;;;;;;3.63;2.90;;;17.40;50.20;;;;;;4210008;28;20055;-65
2022/04/26 13:48:22;;;;;;;4.78;2.80;;;17.40;50.30;;;;;;4210869;28;20104;-65
2022/04/26 13:50:44;;;;;;;5.53;2.72;;;17.40;50.20;;;;;;4209267;28;20481;-66
2022/04/26 13:53:06;;;;;;;4.28;2.67;;;17.40;50.10;;;;;;4209447;28;20493;-66
2022/04/26 13:55:30;;;;;;;7.93;2.60;;;17.40;50.50;;;;;;4210991;28;20075;-67
2022/04/26 13:57:52;;;;;;;5.43;2.45;;;17.40;50.90;;;;;;4200154;28;20068;-65
2022/04/26 14:00:16;;;;;;;4.97;2.88;;;17.50;51.20;;;;;;4206788;28;20172;-65
2022/04/26 14:02:40;;;;;;;4.90;2.58;;;17.50;50.60;;;;;;4210726;28;20079;-65
2022/04/26 14:05:04;;;;;;;3.80;2.60;;;17.50;50.50;;;;;;4193928;28;20131;-66
2022/04/26 14:07:27;;;;;;;3.28;2.63;;;17.50;49.90;;;;;;4193805;28;20063;-65
2022/04/26 14:09:49;;;;;;;4.88;2.20;;;17.50;49.80;;;;;;4201800;28;20464;-67
2022/04/26 14:12:14;;;;;;;5.25;2.33;;;17.50;49.90;;;;;;4194690;28;20052;-66
2022/04/26 14:22:48;;;;;;;4.30;2.40;;;17.50;50.40;;;;;;4157955;28;20052;-67
2022/04/26 14:25:12;;;;;;;6.20;2.60;;;17.50;51.10;;;;;;4201070;28;20054;-68
2022/04/26 14:27:34;;;;;;;4.93;2.33;;;17.50;51.20;;;;;;4210437;28;20061;-66
2022/04/26 14:29:57;;;;;;;6.68;3.28;;;17.50;51.30;;;;;;4208823;28;20101;-67
2022/04/26 14:32:19;;;;;;;6.85;3.15;;;17.50;50.60;;;;;;4208995;28;20052;-67
2022/04/26 14:34:42;;;;;;;4.40;2.38;;;17.50;50.10;;;;;;4209791;28;20070;-67
2022/04/26 14:37:05;;;;;;;5.13;2.33;;;17.50;50.10;;;;;;4209825;28;20036;-68
2022/04/26 14:39:28;;;;;;;7.10;2.97;;;17.50;50.80;;;;;;4209895;28;20064;-68
2022/04/26 14:41:51;;;;;;;5.07;2.55;;;17.50;50.30;;;;;;4208444;28;20082;-66
2022/04/26 14:44:14;;;;;;;5.60;2.70;;;17.50;50.40;;;;;;4209264;28;20507;-67
2022/04/26 14:46:36;;;;;;;8.38;3.38;;;17.50;49.60;;;;;;4210089;28;20510;-67
2022/04/26 14:48:58;;;;;;;6.40;2.80;;;17.40;49.70;;;;;;4210374;28;20075;-63
2022/04/26 14:51:22;;;;;;;4.60;2.65;;;17.50;51.40;;;;;;4209377;28;20052;-64
2022/04/26 14:53:45;;;;;;;4.75;2.80;;;17.50;50.90;;;;;;4209608;28;20059;-65
2022/04/26 14:56:10;;;;;;;5.20;2.65;;;17.50;51.30;;;;;;4209970;28;20036;-65
2022/04/26 14:58:52;;;;;;;4.18;2.10;;;17.50;51.20;;;;;;4209039;28;20039;-65
2022/04/26 15:01:14;;;;;;;5.55;2.35;;;17.50;50.70;;;;;;4205691;28;20372;-65
2022/04/26 15:03:36;;;;;;;7.97;2.53;;;17.50;50.60;;;;;;4209524;28;20559;-65
2022/04/26 15:05:59;;;;;;;4.13;2.28;;;17.60;50.50;;;;;;4209463;28;20453;-65
2022/04/26 15:11:01;;;;;;;6.68;2.80;;;17.70;50.70;;;;;;4208527;28;20473;-64
2022/04/26 15:18:44;;;;;;;3.83;2.60;;;17.70;51.60;;;;;;4208044;28;20047;-65
2022/04/26 15:21:09;;;;;;;4.53;2.30;;;17.80;50.80;;;;;;4208378;28;20134;-64
2022/04/26 15:23:33;;;;;;;6.10;2.50;;;17.80;51.30;;;;;;4208818;28;20052;-64
2022/04/26 15:25:55;;;;;;;6.18;2.33;;;17.80;51.10;;;;;;4208157;28;20054;-65
2022/04/26 15:28:19;;;;;;;5.82;2.65;;;17.80;50.40;;;;;;4207867;28;20051;-65
2022/04/26 15:30:43;;;;;;;3.38;2.00;;;17.80;50.30;;;;;;4209202;28;20101;-65
2022/04/26 15:33:05;;;;;;;3.50;2.30;;;17.80;49.50;;;;;;4207496;28;20044;-65
2022/04/26 15:35:27;;;;;;;2.22;1.52;;;17.80;48.90;;;;;;4208970;28;20390;-64
2022/04/26 15:37:49;;;;;;;5.28;2.47;;;17.80;50.70;;;;;;4208047;28;20050;-65
2022/04/26 15:40:11;;;;;;;4.25;1.95;;;17.90;50.00;;;;;;4208686;28;20054;-65
2022/04/26 15:42:34;;;;;;;6.43;2.47;;;17.80;50.90;;;;;;4207332;28;20441;-66
2022/04/26 15:44:55;;;;;;;5.10;2.22;;;17.90;51.00;;;;;;4208426;28;20063;-66
2022/04/26 15:47:19;;;;;;;5.03;2.17;;;17.90;50.50;;;;;;4207408;28;20050;-65
2022/04/26 15:49:42;;;;;;;4.68;2.05;;;17.90;50.00;;;;;;4207715;28;20052;-65
2022/04/26 15:52:04;;;;;;;4.53;2.50;;;17.90;49.70;;;;;;4208044;28;20060;-65
2022/04/26 15:54:28;;;;;;;5.28;2.28;;;17.90;50.40;;;;;;4203937;28;20058;-65
2022/04/26 15:56:50;;;;;;;5.35;2.85;;;17.90;49.60;;;;;;4208848;28;20501;-65
2022/04/26 15:59:13;;;;;;;9.73;2.65;;;17.90;49.40;;;;;;4208144;28;20455;-64
2022/04/26 16:01:36;;;;;;;2.95;2.22;;;17.90;49.80;;;;;;4208687;28;20040;-64
2022/04/26 16:04:00;;;;;;;8.48;1.90;;;17.90;49.80;;;;;;4205841;28;20067;-64
2022/04/26 16:06:22;;;;;;;6.80;2.70;;;17.90;50.00;;;;;;4208312;28;20097;-66
2022/04/26 16:08:44;;;;;;;2.95;2.03;;;17.90;49.30;;;;;;4207721;28;20527;-65
2022/04/26 16:21:47;;;;;;;4.10;2.17;;;17.90;49.60;;;;;;4205269;28;20126;-65
2022/04/26 16:24:09;;;;;;;5.45;2.17;;;17.80;49.20;;;;;;4208489;28;20131;-65
2022/04/26 16:26:34;;;;;;;5.20;2.08;;;17.80;48.80;;;;;;4208788;28;20472;-65
2022/04/26 16:28:56;;;;;;;3.88;2.00;;;17.80;49.00;;;;;;4208676;28;20054;-65
2022/04/26 16:31:19;;;;;;;2.97;2.30;;;17.80;48.50;;;;;;4208218;28;20054;-64
2022/04/26 16:33:41;;;;;;;8.18;2.58;;;17.80;49.00;;;;;;4207545;28;20058;-65
2022/04/26 16:36:07;;;;;;;2.78;2.42;;;17.80;49.50;;;;;;4207030;28;20472;-65
2022/04/26 16:38:29;;;;;;;6.22;2.38;;;17.80;50.00;;;;;;4208922;28;20372;-65
2022/04/26 16:40:51;;;;;;;4.63;2.10;;;17.70;49.60;;;;;;4208967;28;20498;-65
2022/04/26 16:43:16;;;;;;;3.15;2.13;;;17.70;49.40;;;;;;4208823;28;20543;-66
2022/04/26 16:45:38;;;;;;;3.13;2.17;;;17.70;49.10;;;;;;4208614;28;20117;-66
2022/04/26 16:48:00;;;;;;;4.75;2.50;;;17.70;49.40;;;;;;4208553;28;20800;-70
2022/04/26 16:50:22;;;;;;;3.53;2.15;;;17.60;49.80;;;;;;4208541;28;20121;-69
2022/04/26 16:52:46;;;;;;;4.95;2.25;;;17.70;49.80;;;;;;4208260;27;20066;-71